SWR64 LSZH-KMIA
Flight info
| Callsign | SWR64 |
|---|---|
| Flight time | 9h 37m |
| Altitude | 34000 |
| Route | VEBIT T10 TORPA DCT REKLA DCT RLP DCT ROTSI DCT AMODO DCT COHPA UM729 RESMI DCT TABOV DCT PIGOP DCT DITAL UN491 LGL UN502 ARGED DCT SENLO DCT JSY DCT LIZAD DCT GAPLI/M083F340 DCT SOMAX DCT 4930N02000W 48N030W 47N040W 45N050W DCT RAFIN/M083F360 DCT BOBTU M203 JNFOX/M083F380 M203 SNAGY/N0477F380 BNFSH3 |
| Aircraft | B77W/H-SDE2E3FGHIJ1J4J5LM1OP2RVWXYZ/LB1D1G1 |
Departure
| Time | 2026-04-30 11:57 |
|---|---|
| Airport | Zürich Airport (LSZH) |
Arrival
| Time | 2026-04-30 21:34 |
|---|---|
| Airport | Miami International Airport (KMIA) |
| Time | Latitude | Longitude | Altitude | Speed | Heading |
|---|---|---|---|---|---|
| 2026-04-30 10:22 | 47.46030 | 8.55832 | 1416 ft | 0 kts | 6° |
| 2026-04-30 11:43 | 47.46014 | 8.55830 | 1416 ft | 4 kts | 6° |
| 2026-04-30 11:43 | 47.45987 | 8.55825 | 1411 ft | 4 kts | 5° |
| 2026-04-30 11:44 | 47.45964 | 8.55822 | 1409 ft | 4 kts | 356° |
| 2026-04-30 11:44 | 47.45943 | 8.55834 | 1417 ft | 4 kts | 299° |
| 2026-04-30 11:44 | 47.45937 | 8.55871 | 1416 ft | 4 kts | 270° |
| 2026-04-30 11:44 | 47.45936 | 8.55904 | 1417 ft | 1 kts | 276° |
| 2026-04-30 11:48 | 47.45936 | 8.55901 | 1417 ft | 2 kts | 276° |
| 2026-04-30 11:48 | 47.45940 | 8.55841 | 1416 ft | 11 kts | 275° |
| 2026-04-30 11:49 | 47.45950 | 8.55719 | 1413 ft | 12 kts | 276° |
| 2026-04-30 11:49 | 47.45959 | 8.55595 | 1408 ft | 12 kts | 276° |
| 2026-04-30 11:49 | 47.45967 | 8.55471 | 1410 ft | 12 kts | 276° |
| 2026-04-30 11:49 | 47.45976 | 8.55347 | 1409 ft | 12 kts | 275° |
| 2026-04-30 11:50 | 47.45985 | 8.55220 | 1400 ft | 12 kts | 276° |
| 2026-04-30 11:50 | 47.46015 | 8.55103 | 1408 ft | 13 kts | 315° |
| 2026-04-30 11:50 | 47.46090 | 8.55036 | 1403 ft | 13 kts | 335° |
| 2026-04-30 11:50 | 47.46170 | 8.54981 | 1404 ft | 13 kts | 335° |
| 2026-04-30 11:51 | 47.46255 | 8.54923 | 1404 ft | 15 kts | 335° |
| 2026-04-30 11:51 | 47.46364 | 8.54849 | 1403 ft | 19 kts | 334° |
| 2026-04-30 11:51 | 47.46482 | 8.54765 | 1405 ft | 19 kts | 335° |
| 2026-04-30 11:51 | 47.46601 | 8.54683 | 1406 ft | 19 kts | 334° |
| 2026-04-30 11:52 | 47.46716 | 8.54602 | 1403 ft | 14 kts | 334° |
| 2026-04-30 11:52 | 47.46791 | 8.54497 | 1385 ft | 16 kts | 300° |
| 2026-04-30 11:52 | 47.46864 | 8.54381 | 1382 ft | 16 kts | 325° |
| 2026-04-30 11:52 | 47.46956 | 8.54297 | 1385 ft | 16 kts | 334° |
| 2026-04-30 11:53 | 47.47057 | 8.54239 | 1389 ft | 16 kts | 337° |
| 2026-04-30 11:53 | 47.47157 | 8.54173 | 1400 ft | 17 kts | 335° |
| 2026-04-30 11:53 | 47.47269 | 8.54095 | 1401 ft | 18 kts | 335° |
| 2026-04-30 11:53 | 47.47379 | 8.54018 | 1403 ft | 18 kts | 335° |
| 2026-04-30 11:54 | 47.47492 | 8.53940 | 1403 ft | 18 kts | 335° |
| 2026-04-30 11:54 | 47.47583 | 8.53858 | 1405 ft | 14 kts | 311° |
| 2026-04-30 11:54 | 47.47599 | 8.53740 | 1407 ft | 11 kts | 256° |
| 2026-04-30 11:54 | 47.47569 | 8.53637 | 1406 ft | 11 kts | 231° |
| 2026-04-30 11:55 | 47.47501 | 8.53639 | 1409 ft | 7 kts | 153° |
| 2026-04-30 11:55 | 47.47497 | 8.53643 | 1408 ft | 0 kts | 153° |
| 2026-04-30 11:56 | 47.47480 | 8.53655 | 1421 ft | 16 kts | 154° |
| 2026-04-30 11:56 | 47.47140 | 8.53891 | 1386 ft | 91 kts | 155° |
| 2026-04-30 11:56 | 47.46352 | 8.54434 | 1387 ft | 156 kts | 154° |
| 2026-04-30 11:57 | 47.45203 | 8.55226 | 1415 ft | 205 kts | 155° |
| 2026-04-30 11:57 | 47.43873 | 8.56086 | 1980 ft | 200 kts | 154° |
| 2026-04-30 11:57 | 47.42662 | 8.56994 | 2718 ft | 196 kts | 133° |
| 2026-04-30 11:57 | 47.42017 | 8.58655 | 3242 ft | 182 kts | 90° |
| 2026-04-30 11:58 | 47.42261 | 8.60453 | 3599 ft | 185 kts | 54° |
| 2026-04-30 11:58 | 47.43254 | 8.61549 | 4132 ft | 181 kts | 18° |
| 2026-04-30 11:58 | 47.44488 | 8.61575 | 4645 ft | 180 kts | 350° |
| 2026-04-30 11:58 | 47.45649 | 8.60713 | 4790 ft | 201 kts | 317° |
| 2026-04-30 11:59 | 47.46273 | 8.58805 | 4867 ft | 219 kts | 275° |
| 2026-04-30 11:59 | 47.46207 | 8.56573 | 5294 ft | 215 kts | 261° |
| 2026-04-30 11:59 | 47.46021 | 8.54335 | 5484 ft | 229 kts | 264° |
| 2026-04-30 11:59 | 47.45880 | 8.51912 | 5737 ft | 247 kts | 265° |
| 2026-04-30 12:00 | 47.45632 | 8.49289 | 5793 ft | 268 kts | 249° |
| 2026-04-30 12:00 | 47.44700 | 8.46873 | 6069 ft | 275 kts | 231° |
| 2026-04-30 12:00 | 47.43580 | 8.44541 | 6644 ft | 282 kts | 233° |
| 2026-04-30 12:00 | 47.42469 | 8.42139 | 7306 ft | 284 kts | 234° |
| 2026-04-30 12:01 | 47.41344 | 8.39717 | 7934 ft | 288 kts | 234° |
| 2026-04-30 12:01 | 47.40202 | 8.37260 | 8578 ft | 291 kts | 234° |
| 2026-04-30 12:01 | 47.39048 | 8.34777 | 9152 ft | 296 kts | 234° |
| 2026-04-30 12:01 | 47.38000 | 8.32156 | 9837 ft | 296 kts | 242° |
| 2026-04-30 12:02 | 47.37060 | 8.29422 | 10382 ft | 301 kts | 243° |
| 2026-04-30 12:02 | 47.36088 | 8.26596 | 10642 ft | 320 kts | 243° |
| 2026-04-30 12:02 | 47.35034 | 8.23576 | 10822 ft | 342 kts | 243° |
| 2026-04-30 12:02 | 47.33899 | 8.20353 | 10955 ft | 364 kts | 242° |
| 2026-04-30 12:03 | 47.32695 | 8.16961 | 11230 ft | 382 kts | 242° |
| 2026-04-30 12:03 | 47.30188 | 8.09906 | 12589 ft | 396 kts | 243° |
| 2026-04-30 12:03 | 47.28909 | 8.06278 | 13404 ft | 400 kts | 243° |
| 2026-04-30 12:04 | 47.27659 | 8.02611 | 14205 ft | 399 kts | 248° |
| 2026-04-30 12:04 | 47.27061 | 7.98611 | 14727 ft | 405 kts | 271° |
| 2026-04-30 12:04 | 47.27394 | 7.94507 | 15258 ft | 406 kts | 282° |
| 2026-04-30 12:04 | 47.27853 | 7.90414 | 15793 ft | 415 kts | 281° |
| 2026-04-30 12:05 | 47.28262 | 7.86206 | 16629 ft | 416 kts | 279° |
| 2026-04-30 12:05 | 47.28659 | 7.81900 | 17428 ft | 419 kts | 279° |
| 2026-04-30 12:05 | 47.29043 | 7.77696 | 18147 ft | 423 kts | 279° |
| 2026-04-30 12:05 | 47.29439 | 7.73382 | 18773 ft | 428 kts | 280° |
| 2026-04-30 12:06 | 47.29843 | 7.69000 | 19370 ft | 433 kts | 280° |
| 2026-04-30 12:06 | 47.30262 | 7.64600 | 20000 ft | 436 kts | 282° |
| 2026-04-30 12:06 | 47.30907 | 7.60233 | 20615 ft | 438 kts | 288° |
| 2026-04-30 12:06 | 47.31842 | 7.55944 | 21209 ft | 440 kts | 291° |
| 2026-04-30 12:07 | 47.32813 | 7.51646 | 21785 ft | 445 kts | 290° |
| 2026-04-30 12:07 | 47.33788 | 7.47300 | 22360 ft | 449 kts | 290° |
| 2026-04-30 12:07 | 47.34764 | 7.42891 | 22878 ft | 455 kts | 290° |
| 2026-04-30 12:07 | 47.35737 | 7.38439 | 23439 ft | 459 kts | 290° |
| 2026-04-30 12:08 | 47.36713 | 7.33941 | 23963 ft | 462 kts | 290° |
| 2026-04-30 12:08 | 47.37693 | 7.29395 | 24421 ft | 466 kts | 289° |
| 2026-04-30 12:08 | 47.38677 | 7.24827 | 24901 ft | 469 kts | 289° |
| 2026-04-30 12:08 | 47.39667 | 7.20225 | 25344 ft | 473 kts | 289° |
| 2026-04-30 12:09 | 47.40652 | 7.15575 | 25765 ft | 477 kts | 288° |
| 2026-04-30 12:09 | 47.41448 | 7.10797 | 26197 ft | 481 kts | 284° |
| 2026-04-30 12:09 | 47.42146 | 7.05959 | 26601 ft | 485 kts | 283° |
| 2026-04-30 12:09 | 47.42840 | 7.01060 | 26972 ft | 489 kts | 283° |
| 2026-04-30 12:10 | 47.43541 | 6.96130 | 27401 ft | 492 kts | 283° |
| 2026-04-30 12:10 | 47.44252 | 6.91178 | 27835 ft | 494 kts | 283° |
| 2026-04-30 12:10 | 47.44973 | 6.86198 | 28244 ft | 496 kts | 283° |
| 2026-04-30 12:10 | 47.45697 | 6.81201 | 28619 ft | 499 kts | 283° |
| 2026-04-30 12:11 | 47.46426 | 6.76174 | 28952 ft | 502 kts | 283° |
| 2026-04-30 12:11 | 47.47156 | 6.71107 | 29295 ft | 505 kts | 283° |
| 2026-04-30 12:11 | 47.47872 | 6.66026 | 29692 ft | 506 kts | 281° |
| 2026-04-30 12:11 | 47.48400 | 6.60885 | 30143 ft | 506 kts | 277° |
| 2026-04-30 12:12 | 47.48776 | 6.55779 | 30494 ft | 506 kts | 276° |
| 2026-04-30 12:12 | 47.49111 | 6.50597 | 30881 ft | 505 kts | 276° |
| 2026-04-30 12:12 | 47.49439 | 6.45438 | 31433 ft | 501 kts | 276° |
| 2026-04-30 12:12 | 47.49776 | 6.40326 | 31864 ft | 500 kts | 276° |
| 2026-04-30 12:13 | 47.50128 | 6.35202 | 32184 ft | 500 kts | 277° |
| 2026-04-30 12:13 | 47.50490 | 6.30068 | 32456 ft | 502 kts | 277° |
| 2026-04-30 12:13 | 47.50853 | 6.24959 | 32868 ft | 499 kts | 277° |
| 2026-04-30 12:13 | 47.51215 | 6.19866 | 33344 ft | 496 kts | 277° |
| 2026-04-30 12:14 | 47.51571 | 6.14790 | 33692 ft | 495 kts | 277° |
| 2026-04-30 12:14 | 47.51924 | 6.09722 | 33963 ft | 496 kts | 277° |
| 2026-04-30 12:14 | 47.52276 | 6.04624 | 34101 ft | 499 kts | 277° |
| 2026-04-30 12:15 | 47.52975 | 5.94398 | 34178 ft | 498 kts | 277° |
| 2026-04-30 12:15 | 47.53540 | 5.89389 | 34177 ft | 492 kts | 288° |
| 2026-04-30 12:15 | 47.54754 | 5.84666 | 34163 ft | 491 kts | 298° |
| 2026-04-30 12:16 | 47.58684 | 5.76513 | 34179 ft | 486 kts | 315° |
| 2026-04-30 12:16 | 47.63327 | 5.69250 | 34175 ft | 489 kts | 315° |
| 2026-04-30 12:17 | 47.70282 | 5.58133 | 34172 ft | 491 kts | 314° |
| 2026-04-30 12:17 | 47.74893 | 5.50626 | 34174 ft | 492 kts | 314° |
| 2026-04-30 12:18 | 47.79499 | 5.43104 | 34169 ft | 492 kts | 314° |
| 2026-04-30 12:18 | 47.84102 | 5.35571 | 34175 ft | 491 kts | 314° |
| 2026-04-30 12:19 | 47.88691 | 5.28043 | 34177 ft | 491 kts | 314° |
| 2026-04-30 12:19 | 47.93247 | 5.20557 | 34169 ft | 490 kts | 314° |
| 2026-04-30 12:20 | 47.97832 | 5.13025 | 34177 ft | 490 kts | 314° |
| 2026-04-30 12:20 | 48.02414 | 5.05478 | 34174 ft | 490 kts | 314° |
| 2026-04-30 12:21 | 48.06990 | 4.97914 | 34176 ft | 490 kts | 314° |
| 2026-04-30 12:21 | 48.11560 | 4.90337 | 34177 ft | 491 kts | 314° |
| 2026-04-30 12:22 | 48.16134 | 4.82733 | 34172 ft | 491 kts | 314° |
| 2026-04-30 12:22 | 48.20708 | 4.75105 | 34178 ft | 492 kts | 314° |
| 2026-04-30 12:23 | 48.25200 | 4.67372 | 34168 ft | 493 kts | 306° |
| 2026-04-30 12:23 | 48.26919 | 4.62990 | 34169 ft | 494 kts | 295° |
| 2026-04-30 12:23 | 48.28157 | 4.58100 | 34180 ft | 495 kts | 286° |
| 2026-04-30 12:24 | 48.29262 | 4.47983 | 34179 ft | 496 kts | 277° |
| 2026-04-30 12:24 | 48.30104 | 4.37683 | 34174 ft | 498 kts | 277° |
| 2026-04-30 12:25 | 48.30993 | 4.27351 | 34173 ft | 499 kts | 277° |
| 2026-04-30 12:25 | 48.31915 | 4.17011 | 34157 ft | 500 kts | 277° |
| 2026-04-30 12:26 | 48.32839 | 4.06646 | 34158 ft | 500 kts | 277° |
| 2026-04-30 12:26 | 48.33752 | 3.96279 | 34156 ft | 499 kts | 277° |
| 2026-04-30 12:27 | 48.34649 | 3.85948 | 34158 ft | 498 kts | 277° |
| 2026-04-30 12:27 | 48.35536 | 3.75622 | 34160 ft | 498 kts | 277° |
| 2026-04-30 12:28 | 48.36407 | 3.65374 | 34170 ft | 497 kts | 277° |
| 2026-04-30 12:28 | 48.37273 | 3.55071 | 34161 ft | 497 kts | 277° |
| 2026-04-30 12:29 | 48.38132 | 3.44753 | 34166 ft | 497 kts | 277° |
| 2026-04-30 12:29 | 48.38980 | 3.34429 | 34150 ft | 497 kts | 276° |
| 2026-04-30 12:30 | 48.39820 | 3.24103 | 34161 ft | 497 kts | 276° |
| 2026-04-30 12:30 | 48.40651 | 3.13761 | 34158 ft | 498 kts | 276° |
| 2026-04-30 12:31 | 48.41472 | 3.03458 | 34155 ft | 499 kts | 276° |
| 2026-04-30 12:31 | 48.42722 | 2.93179 | 34142 ft | 500 kts | 286° |
| 2026-04-30 12:32 | 48.44780 | 2.83164 | 34148 ft | 501 kts | 286° |
| 2026-04-30 12:32 | 48.46735 | 2.73098 | 34150 ft | 501 kts | 285° |
| 2026-04-30 12:33 | 48.48646 | 2.63011 | 34150 ft | 500 kts | 285° |
| 2026-04-30 12:33 | 48.50557 | 2.52929 | 34153 ft | 500 kts | 285° |
| 2026-04-30 12:34 | 48.52464 | 2.42853 | 34152 ft | 500 kts | 285° |
| 2026-04-30 12:34 | 48.54364 | 2.32760 | 34153 ft | 499 kts | 285° |
| 2026-04-30 12:35 | 48.56254 | 2.22674 | 34149 ft | 499 kts | 285° |
| 2026-04-30 12:35 | 48.57903 | 2.12513 | 34157 ft | 498 kts | 281° |
| 2026-04-30 12:36 | 48.59298 | 2.02258 | 34150 ft | 497 kts | 280° |
| 2026-04-30 12:36 | 48.60450 | 1.93764 | 34145 ft | 497 kts | 280° |
| 2026-04-30 12:37 | 48.61856 | 1.83522 | 34126 ft | 496 kts | 280° |
| 2026-04-30 12:37 | 48.63483 | 1.71654 | 34130 ft | 496 kts | 280° |
| 2026-04-30 12:38 | 48.64647 | 1.63095 | 34124 ft | 496 kts | 280° |
| 2026-04-30 12:38 | 48.66035 | 1.52895 | 34122 ft | 496 kts | 280° |
| 2026-04-30 12:39 | 48.67421 | 1.42671 | 34125 ft | 496 kts | 280° |
| 2026-04-30 12:39 | 48.68785 | 1.32530 | 34123 ft | 496 kts | 280° |
| 2026-04-30 12:40 | 48.70152 | 1.22226 | 34128 ft | 496 kts | 279° |
| 2026-04-30 12:40 | 48.71496 | 1.11995 | 34120 ft | 495 kts | 279° |
| 2026-04-30 12:41 | 48.72824 | 1.01832 | 34117 ft | 495 kts | 279° |
| 2026-04-30 12:41 | 48.74151 | 0.91611 | 34115 ft | 494 kts | 279° |
| 2026-04-30 12:42 | 48.75471 | 0.81395 | 34121 ft | 493 kts | 279° |
| 2026-04-30 12:42 | 48.76783 | 0.71195 | 34109 ft | 492 kts | 279° |
| 2026-04-30 12:43 | 48.78084 | 0.61020 | 34107 ft | 491 kts | 279° |
| 2026-04-30 12:43 | 48.79442 | 0.50860 | 34088 ft | 491 kts | 283° |
| 2026-04-30 12:44 | 48.81245 | 0.40891 | 34109 ft | 490 kts | 284° |
| 2026-04-30 12:44 | 48.83083 | 0.30928 | 34092 ft | 489 kts | 284° |
| 2026-04-30 12:45 | 48.84882 | 0.20982 | 34091 ft | 488 kts | 284° |
| 2026-04-30 12:45 | 48.86645 | 0.11100 | 34083 ft | 487 kts | 283° |
| 2026-04-30 12:46 | 48.88404 | 0.01172 | 34088 ft | 487 kts | 284° |
| 2026-04-30 12:46 | 48.90158 | -0.08769 | 34085 ft | 487 kts | 283° |
| 2026-04-30 12:47 | 48.91901 | -0.18702 | 34089 ft | 486 kts | 283° |
| 2026-04-30 12:47 | 48.93631 | -0.28649 | 34095 ft | 486 kts | 283° |
| 2026-04-30 12:48 | 48.95308 | -0.38603 | 34093 ft | 486 kts | 283° |
| 2026-04-30 12:48 | 48.96970 | -0.48579 | 34096 ft | 486 kts | 283° |
| 2026-04-30 12:49 | 48.98629 | -0.58556 | 34094 ft | 486 kts | 283° |
| 2026-04-30 12:49 | 49.00284 | -0.68540 | 34097 ft | 486 kts | 283° |
| 2026-04-30 12:50 | 49.01929 | -0.78535 | 34076 ft | 486 kts | 283° |
| 2026-04-30 12:50 | 49.03564 | -0.88526 | 34087 ft | 486 kts | 282° |
| 2026-04-30 12:51 | 49.05184 | -0.98477 | 34075 ft | 487 kts | 282° |
| 2026-04-30 12:51 | 49.06806 | -1.08510 | 34074 ft | 487 kts | 282° |
| 2026-04-30 12:52 | 49.08424 | -1.18558 | 34071 ft | 487 kts | 282° |
| 2026-04-30 12:52 | 49.10047 | -1.28583 | 34075 ft | 487 kts | 282° |
| 2026-04-30 12:53 | 49.11675 | -1.38622 | 34057 ft | 487 kts | 282° |
| 2026-04-30 12:53 | 49.13294 | -1.48684 | 34072 ft | 488 kts | 282° |
| 2026-04-30 12:54 | 49.14901 | -1.58747 | 34066 ft | 488 kts | 282° |
| 2026-04-30 12:54 | 49.16501 | -1.68830 | 34066 ft | 488 kts | 282° |
| 2026-04-30 12:55 | 49.18093 | -1.78916 | 34081 ft | 488 kts | 281° |
| 2026-04-30 12:55 | 49.19668 | -1.88965 | 34078 ft | 490 kts | 281° |
| 2026-04-30 12:56 | 49.21252 | -1.99124 | 34073 ft | 491 kts | 281° |
| 2026-04-30 12:56 | 49.22859 | -2.09292 | 34073 ft | 493 kts | 282° |
| 2026-04-30 12:57 | 49.24607 | -2.19455 | 34073 ft | 493 kts | 283° |
| 2026-04-30 12:57 | 49.26376 | -2.29610 | 34080 ft | 494 kts | 282° |
| 2026-04-30 12:58 | 49.28117 | -2.39785 | 34079 ft | 494 kts | 282° |
| 2026-04-30 12:58 | 49.29841 | -2.49992 | 34079 ft | 494 kts | 282° |
| 2026-04-30 12:59 | 49.31536 | -2.60106 | 34075 ft | 494 kts | 282° |
| 2026-04-30 12:59 | 49.33239 | -2.70329 | 34089 ft | 494 kts | 281° |
| 2026-04-30 13:00 | 49.34933 | -2.80547 | 34072 ft | 494 kts | 281° |
| 2026-04-30 13:00 | 49.36618 | -2.90776 | 34071 ft | 494 kts | 281° |
| 2026-04-30 13:01 | 49.38282 | -3.00939 | 34073 ft | 495 kts | 281° |
| 2026-04-30 13:01 | 49.39950 | -3.11189 | 34073 ft | 495 kts | 281° |
| 2026-04-30 13:02 | 49.41610 | -3.21450 | 34073 ft | 495 kts | 281° |
| 2026-04-30 13:02 | 49.43261 | -3.31720 | 34065 ft | 495 kts | 281° |
| 2026-04-30 13:03 | 49.44903 | -3.41995 | 34065 ft | 495 kts | 281° |
| 2026-04-30 13:03 | 49.46536 | -3.52280 | 34060 ft | 495 kts | 281° |
| 2026-04-30 13:04 | 49.48160 | -3.62568 | 34078 ft | 494 kts | 280° |
| 2026-04-30 13:04 | 49.49771 | -3.72843 | 34060 ft | 493 kts | 280° |
| 2026-04-30 13:05 | 49.51351 | -3.82978 | 34056 ft | 491 kts | 280° |
| 2026-04-30 13:06 | 49.53726 | -3.98344 | 34053 ft | 489 kts | 279° |
| 2026-04-30 13:06 | 49.55290 | -4.08540 | 34072 ft | 488 kts | 279° |
| 2026-04-30 13:07 | 49.56838 | -4.18699 | 34056 ft | 486 kts | 279° |
| 2026-04-30 13:07 | 49.58376 | -4.28850 | 34051 ft | 485 kts | 279° |
| 2026-04-30 13:08 | 49.59829 | -4.38901 | 34057 ft | 482 kts | 278° |
| 2026-04-30 13:08 | 49.61107 | -4.49051 | 34058 ft | 481 kts | 277° |
| 2026-04-30 13:09 | 49.62348 | -4.59172 | 34048 ft | 481 kts | 278° |
| 2026-04-30 13:09 | 49.63605 | -4.69303 | 34048 ft | 480 kts | 278° |
| 2026-04-30 13:10 | 49.64862 | -4.79398 | 34059 ft | 478 kts | 278° |
| 2026-04-30 13:10 | 49.66115 | -4.89507 | 34064 ft | 479 kts | 277° |
| 2026-04-30 13:11 | 49.67360 | -4.99634 | 34061 ft | 481 kts | 277° |
| 2026-04-30 13:11 | 49.68602 | -5.09827 | 34050 ft | 483 kts | 277° |
| 2026-04-30 13:12 | 49.69831 | -5.19986 | 34054 ft | 484 kts | 277° |
| 2026-04-30 13:12 | 49.71060 | -5.30216 | 34024 ft | 485 kts | 277° |
| 2026-04-30 13:13 | 49.72885 | -5.45572 | 34055 ft | 484 kts | 277° |
| 2026-04-30 13:14 | 49.74683 | -5.60870 | 34026 ft | 480 kts | 277° |
| 2026-04-30 13:14 | 49.76442 | -5.76024 | 34026 ft | 475 kts | 277° |
| 2026-04-30 13:15 | 49.78170 | -5.91095 | 34055 ft | 473 kts | 276° |
| 2026-04-30 13:16 | 49.79301 | -6.01061 | 34034 ft | 473 kts | 276° |
| 2026-04-30 13:16 | 49.80429 | -6.11077 | 34024 ft | 472 kts | 276° |
| 2026-04-30 13:17 | 49.81510 | -6.20664 | 33965 ft | 428 kts | 276° |
| 2026-04-30 13:17 | 49.82013 | -6.25146 | 34028 ft | 424 kts | 275° |
| 2026-04-30 13:17 | 49.82844 | -6.32739 | 34040 ft | 435 kts | 275° |
| 2026-04-30 13:18 | 49.83523 | -6.38984 | 34063 ft | 444 kts | 275° |
| 2026-04-30 13:18 | 49.84563 | -6.48572 | 34043 ft | 458 kts | 275° |
| 2026-04-30 13:18 | 49.85094 | -6.53475 | 34040 ft | 464 kts | 275° |
| 2026-04-30 13:19 | 49.86170 | -6.63442 | 34042 ft | 474 kts | 275° |
| 2026-04-30 13:19 | 49.87257 | -6.73577 | 34019 ft | 477 kts | 275° |
| 2026-04-30 13:20 | 49.88327 | -6.83626 | 34057 ft | 475 kts | 274° |
| 2026-04-30 13:20 | 49.89394 | -6.93760 | 34030 ft | 475 kts | 274° |
| 2026-04-30 13:21 | 49.90449 | -7.03892 | 34026 ft | 475 kts | 274° |
| 2026-04-30 13:22 | 49.92010 | -7.19050 | 34020 ft | 475 kts | 274° |
| 2026-04-30 13:22 | 49.93558 | -7.34272 | 34024 ft | 476 kts | 273° |
| 2026-04-30 13:23 | 49.95090 | -7.49563 | 34022 ft | 478 kts | 272° |
| 2026-04-30 13:24 | 49.97106 | -7.69989 | 34020 ft | 481 kts | 272° |
| 2026-04-30 13:25 | 49.99103 | -7.90594 | 34021 ft | 484 kts | 272° |
| 2026-04-30 13:26 | 50.00497 | -8.14780 | 34022 ft | 480 kts | 265° |
| 2026-04-30 13:28 | 50.01150 | -8.40763 | 34018 ft | 483 kts | 265° |
| 2026-04-30 13:28 | 50.01559 | -8.56448 | 34013 ft | 483 kts | 265° |
| 2026-04-30 13:29 | 50.01816 | -8.66525 | 33968 ft | 464 kts | 264° |
| 2026-04-30 13:29 | 50.02075 | -8.75876 | 33971 ft | 416 kts | 263° |
| 2026-04-30 13:30 | 50.02367 | -8.88975 | 33967 ft | 395 kts | 262° |
| 2026-04-30 13:31 | 50.02539 | -8.97513 | 33454 ft | 396 kts | 262° |
| 2026-04-30 13:31 | 50.02794 | -9.10394 | 33896 ft | 403 kts | 262° |
| 2026-04-30 13:32 | 50.02966 | -9.19274 | 34030 ft | 414 kts | 263° |
| 2026-04-30 13:32 | 50.03136 | -9.28316 | 34031 ft | 428 kts | 263° |
| 2026-04-30 13:33 | 50.03310 | -9.37715 | 34029 ft | 442 kts | 263° |
| 2026-04-30 13:33 | 50.03483 | -9.47412 | 34032 ft | 455 kts | 263° |
| 2026-04-30 13:34 | 50.03568 | -9.52353 | 34010 ft | 463 kts | 263° |
| 2026-04-30 13:34 | 50.03822 | -9.67721 | 34021 ft | 481 kts | 264° |
| 2026-04-30 13:35 | 50.03903 | -9.72927 | 34020 ft | 487 kts | 264° |
| 2026-04-30 13:36 | 50.04219 | -9.94205 | 33993 ft | 492 kts | 264° |
| 2026-04-30 13:36 | 50.04426 | -10.10084 | 34048 ft | 490 kts | 264° |
| 2026-04-30 13:37 | 50.04604 | -10.25974 | 34007 ft | 490 kts | 264° |
| 2026-04-30 13:38 | 50.04762 | -10.41863 | 34003 ft | 490 kts | 264° |
| 2026-04-30 13:39 | 50.04939 | -10.63100 | 34006 ft | 492 kts | 264° |
| 2026-04-30 13:40 | 50.05048 | -10.79094 | 33995 ft | 492 kts | 264° |
| 2026-04-30 13:40 | 50.05108 | -10.89702 | 33995 ft | 493 kts | 264° |
| 2026-04-30 13:41 | 50.05159 | -11.00341 | 33992 ft | 493 kts | 264° |
| 2026-04-30 13:41 | 50.05198 | -11.11007 | 33998 ft | 493 kts | 265° |
| 2026-04-30 13:42 | 50.05230 | -11.21692 | 33987 ft | 493 kts | 265° |
| 2026-04-30 13:42 | 50.05258 | -11.37720 | 33989 ft | 493 kts | 265° |
| 2026-04-30 13:43 | 50.05264 | -11.48350 | 34031 ft | 493 kts | 265° |
| 2026-04-30 13:43 | 50.05260 | -11.59040 | 33989 ft | 494 kts | 266° |
| 2026-04-30 13:44 | 50.05247 | -11.69774 | 33985 ft | 494 kts | 266° |
| 2026-04-30 13:44 | 50.05225 | -11.80447 | 33970 ft | 494 kts | 266° |
| 2026-04-30 13:45 | 50.05171 | -11.96510 | 34001 ft | 496 kts | 266° |
| 2026-04-30 13:46 | 50.05122 | -12.07247 | 33985 ft | 499 kts | 266° |
| 2026-04-30 13:46 | 50.05064 | -12.18048 | 33982 ft | 500 kts | 266° |
| 2026-04-30 13:47 | 50.04997 | -12.28863 | 33978 ft | 501 kts | 266° |
| 2026-04-30 13:47 | 50.04919 | -12.39698 | 33975 ft | 501 kts | 266° |
| 2026-04-30 13:48 | 50.04830 | -12.50523 | 33971 ft | 501 kts | 267° |
| 2026-04-30 13:48 | 50.04731 | -12.61388 | 33972 ft | 501 kts | 267° |
| 2026-04-30 13:49 | 50.04623 | -12.72186 | 33975 ft | 501 kts | 266° |
| 2026-04-30 13:49 | 50.04503 | -12.83082 | 33975 ft | 501 kts | 266° |
| 2026-04-30 13:50 | 50.04375 | -12.93855 | 33981 ft | 501 kts | 267° |
| 2026-04-30 13:50 | 50.04163 | -13.10113 | 33968 ft | 501 kts | 267° |
| 2026-04-30 13:51 | 50.04009 | -13.20969 | 33969 ft | 500 kts | 267° |
| 2026-04-30 13:51 | 50.03844 | -13.31803 | 33970 ft | 500 kts | 267° |
| 2026-04-30 13:52 | 50.03671 | -13.42557 | 33974 ft | 500 kts | 268° |
| 2026-04-30 13:52 | 50.03487 | -13.53354 | 33966 ft | 501 kts | 268° |
| 2026-04-30 13:53 | 50.03293 | -13.64218 | 33973 ft | 501 kts | 268° |
| 2026-04-30 13:53 | 50.03090 | -13.74939 | 33975 ft | 501 kts | 267° |
| 2026-04-30 13:54 | 50.02873 | -13.85879 | 33976 ft | 501 kts | 268° |
| 2026-04-30 13:54 | 50.02648 | -13.96710 | 33974 ft | 502 kts | 268° |
| 2026-04-30 13:55 | 50.02414 | -14.07553 | 33967 ft | 503 kts | 268° |
| 2026-04-30 13:55 | 50.02168 | -14.18438 | 33980 ft | 504 kts | 268° |
| 2026-04-30 13:56 | 50.01911 | -14.29335 | 33983 ft | 505 kts | 268° |
| 2026-04-30 13:56 | 50.01645 | -14.40220 | 33983 ft | 506 kts | 268° |
| 2026-04-30 13:57 | 50.01367 | -14.51132 | 33984 ft | 506 kts | 268° |
| 2026-04-30 13:57 | 50.01079 | -14.62075 | 33983 ft | 506 kts | 267° |
| 2026-04-30 13:58 | 50.00629 | -14.78413 | 33987 ft | 505 kts | 268° |
| 2026-04-30 13:59 | 50.00318 | -14.89283 | 33994 ft | 504 kts | 268° |
| 2026-04-30 13:59 | 49.99982 | -15.00183 | 34001 ft | 504 kts | 266° |
| 2026-04-30 14:00 | 49.99211 | -15.11023 | 33995 ft | 504 kts | 263° |
| 2026-04-30 14:00 | 49.97871 | -15.27149 | 34002 ft | 503 kts | 263° |
| 2026-04-30 14:01 | 49.96984 | -15.37958 | 34008 ft | 502 kts | 264° |
| 2026-04-30 14:01 | 49.96107 | -15.48717 | 34004 ft | 502 kts | 263° |
| 2026-04-30 14:02 | 49.95227 | -15.59429 | 34006 ft | 502 kts | 263° |
| 2026-04-30 14:02 | 49.94331 | -15.70183 | 34008 ft | 501 kts | 264° |
| 2026-04-30 14:03 | 49.93432 | -15.80857 | 34008 ft | 499 kts | 264° |
| 2026-04-30 14:03 | 49.92520 | -15.91552 | 34019 ft | 498 kts | 264° |
| 2026-04-30 14:04 | 49.91601 | -16.02213 | 34026 ft | 498 kts | 264° |
| 2026-04-30 14:04 | 49.90675 | -16.12837 | 34019 ft | 497 kts | 265° |
| 2026-04-30 14:05 | 49.89739 | -16.23455 | 34028 ft | 495 kts | 264° |
| 2026-04-30 14:05 | 49.88798 | -16.34022 | 34028 ft | 494 kts | 264° |
| 2026-04-30 14:06 | 49.87380 | -16.49743 | 34037 ft | 493 kts | 264° |
| 2026-04-30 14:07 | 49.85935 | -16.65509 | 34048 ft | 491 kts | 265° |
| 2026-04-30 14:08 | 49.84474 | -16.81229 | 34055 ft | 491 kts | 265° |
| 2026-04-30 14:08 | 49.82990 | -16.96937 | 34062 ft | 492 kts | 265° |
| 2026-04-30 14:09 | 49.81986 | -17.07440 | 34053 ft | 493 kts | 266° |
| 2026-04-30 14:10 | 49.80460 | -17.23215 | 34064 ft | 497 kts | 266° |
| 2026-04-30 14:10 | 49.79417 | -17.33856 | 34069 ft | 498 kts | 265° |
| 2026-04-30 14:11 | 49.78374 | -17.44403 | 34045 ft | 499 kts | 265° |
| 2026-04-30 14:11 | 49.77315 | -17.54984 | 34071 ft | 495 kts | 265° |
| 2026-04-30 14:12 | 49.76256 | -17.65474 | 34078 ft | 492 kts | 265° |
| 2026-04-30 14:12 | 49.75196 | -17.75893 | 34078 ft | 490 kts | 265° |
| 2026-04-30 14:13 | 49.74128 | -17.86294 | 34090 ft | 488 kts | 265° |
| 2026-04-30 14:13 | 49.73237 | -17.94877 | 34087 ft | 485 kts | 266° |
| 2026-04-30 14:14 | 49.72163 | -18.05165 | 34095 ft | 482 kts | 266° |
| 2026-04-30 14:14 | 49.71091 | -18.15339 | 34105 ft | 480 kts | 266° |
| 2026-04-30 14:15 | 49.70009 | -18.25529 | 34106 ft | 479 kts | 266° |
| 2026-04-30 14:15 | 49.68930 | -18.35596 | 34086 ft | 478 kts | 267° |
| 2026-04-30 14:16 | 49.67838 | -18.45688 | 34113 ft | 477 kts | 267° |
| 2026-04-30 14:16 | 49.66737 | -18.55795 | 34116 ft | 477 kts | 267° |
| 2026-04-30 14:17 | 49.65628 | -18.65889 | 34119 ft | 477 kts | 267° |
| 2026-04-30 14:17 | 49.64508 | -18.75986 | 34122 ft | 477 kts | 267° |
| 2026-04-30 14:18 | 49.63380 | -18.86082 | 34120 ft | 477 kts | 267° |
| 2026-04-30 14:18 | 49.61669 | -19.01229 | 34125 ft | 478 kts | 267° |
| 2026-04-30 14:19 | 49.59946 | -19.16295 | 34137 ft | 478 kts | 266° |
| 2026-04-30 14:20 | 49.58784 | -19.26359 | 34130 ft | 476 kts | 266° |
| 2026-04-30 14:20 | 49.57028 | -19.41400 | 34137 ft | 473 kts | 266° |
| 2026-04-30 14:21 | 49.55855 | -19.51361 | 34139 ft | 471 kts | 266° |
| 2026-04-30 14:22 | 49.54088 | -19.66227 | 34123 ft | 470 kts | 265° |
| 2026-04-30 14:22 | 49.52313 | -19.80998 | 34150 ft | 468 kts | 265° |
| 2026-04-30 14:23 | 49.49919 | -20.00674 | 34155 ft | 468 kts | 265° |
| 2026-04-30 14:24 | 49.48341 | -20.15494 | 34156 ft | 467 kts | 266° |
| 2026-04-30 14:25 | 49.46308 | -20.35218 | 34170 ft | 467 kts | 266° |
| 2026-04-30 14:26 | 49.44731 | -20.49981 | 34170 ft | 467 kts | 266° |
| 2026-04-30 14:27 | 49.43133 | -20.64718 | 34163 ft | 466 kts | 265° |
| 2026-04-30 14:27 | 49.42061 | -20.74504 | 34171 ft | 466 kts | 265° |
| 2026-04-30 14:28 | 49.40438 | -20.89188 | 34177 ft | 465 kts | 265° |
| 2026-04-30 14:28 | 49.39346 | -20.98969 | 34164 ft | 465 kts | 265° |
| 2026-04-30 14:29 | 49.37137 | -21.18518 | 34188 ft | 463 kts | 264° |
| 2026-04-30 14:31 | 49.34357 | -21.42690 | 34184 ft | 459 kts | 264° |
| 2026-04-30 14:31 | 49.32675 | -21.57098 | 34195 ft | 458 kts | 264° |
| 2026-04-30 14:32 | 49.30971 | -21.71523 | 34201 ft | 457 kts | 263° |
| 2026-04-30 14:33 | 49.29830 | -21.81100 | 34202 ft | 457 kts | 263° |
| 2026-04-30 14:33 | 49.28100 | -21.95481 | 34206 ft | 457 kts | 263° |
| 2026-04-30 14:34 | 49.26937 | -22.05063 | 34209 ft | 457 kts | 263° |
| 2026-04-30 14:34 | 49.25774 | -22.14571 | 34209 ft | 457 kts | 263° |
| 2026-04-30 14:35 | 49.24008 | -22.28887 | 34193 ft | 457 kts | 263° |
| 2026-04-30 14:36 | 49.22819 | -22.38434 | 34212 ft | 457 kts | 262° |
| 2026-04-30 14:36 | 49.21623 | -22.47976 | 34211 ft | 456 kts | 262° |
| 2026-04-30 14:37 | 49.20419 | -22.57508 | 34218 ft | 456 kts | 262° |
| 2026-04-30 14:37 | 49.19207 | -22.67040 | 34211 ft | 456 kts | 262° |
| 2026-04-30 14:38 | 49.17984 | -22.76592 | 34211 ft | 457 kts | 262° |
| 2026-04-30 14:38 | 49.16768 | -22.86025 | 34221 ft | 457 kts | 262° |
| 2026-04-30 14:39 | 49.15529 | -22.95572 | 34218 ft | 457 kts | 262° |
| 2026-04-30 14:39 | 49.14292 | -23.05037 | 34218 ft | 457 kts | 262° |
| 2026-04-30 14:40 | 49.12402 | -23.19372 | 34222 ft | 457 kts | 262° |
| 2026-04-30 14:40 | 49.11139 | -23.28877 | 34223 ft | 457 kts | 262° |
| 2026-04-30 14:41 | 49.09867 | -23.38381 | 34223 ft | 457 kts | 262° |
| 2026-04-30 14:41 | 49.08593 | -23.47846 | 34225 ft | 457 kts | 261° |
| 2026-04-30 14:42 | 49.07298 | -23.57396 | 34212 ft | 457 kts | 261° |
| 2026-04-30 14:42 | 49.05998 | -23.66919 | 34227 ft | 457 kts | 261° |
| 2026-04-30 14:43 | 49.04710 | -23.76295 | 34231 ft | 457 kts | 261° |
| 2026-04-30 14:43 | 49.03401 | -23.85766 | 34231 ft | 457 kts | 261° |
| 2026-04-30 14:44 | 49.02074 | -23.95305 | 34236 ft | 457 kts | 261° |
| 2026-04-30 14:44 | 49.00748 | -24.04773 | 34222 ft | 457 kts | 261° |
| 2026-04-30 14:45 | 48.99412 | -24.14252 | 34235 ft | 458 kts | 261° |
| 2026-04-30 14:45 | 48.98081 | -24.23633 | 34238 ft | 458 kts | 260° |
| 2026-04-30 14:46 | 48.96722 | -24.33155 | 34230 ft | 457 kts | 260° |
| 2026-04-30 14:46 | 48.95367 | -24.42591 | 34216 ft | 455 kts | 260° |
| 2026-04-30 14:47 | 48.94011 | -24.51979 | 34241 ft | 454 kts | 260° |
| 2026-04-30 14:47 | 48.92655 | -24.61301 | 34236 ft | 454 kts | 260° |
| 2026-04-30 14:48 | 48.91274 | -24.70748 | 34245 ft | 455 kts | 260° |
| 2026-04-30 14:48 | 48.89903 | -24.80064 | 34248 ft | 456 kts | 260° |
| 2026-04-30 14:49 | 48.88513 | -24.89448 | 34239 ft | 456 kts | 259° |
| 2026-04-30 14:49 | 48.87110 | -24.98873 | 34249 ft | 457 kts | 259° |
| 2026-04-30 14:50 | 48.84984 | -25.13032 | 34240 ft | 458 kts | 259° |
| 2026-04-30 14:51 | 48.82840 | -25.27190 | 34227 ft | 459 kts | 259° |
| 2026-04-30 14:52 | 48.80674 | -25.41365 | 34242 ft | 459 kts | 259° |
| 2026-04-30 14:52 | 48.78505 | -25.55436 | 34238 ft | 459 kts | 259° |
| 2026-04-30 14:53 | 48.76308 | -25.69560 | 34234 ft | 459 kts | 259° |
| 2026-04-30 14:54 | 48.73342 | -25.88445 | 34247 ft | 461 kts | 258° |
| 2026-04-30 14:55 | 48.71100 | -26.02576 | 34248 ft | 462 kts | 258° |
| 2026-04-30 14:56 | 48.68062 | -26.21527 | 34243 ft | 464 kts | 258° |
| 2026-04-30 14:57 | 48.65750 | -26.35810 | 34250 ft | 465 kts | 258° |
| 2026-04-30 14:58 | 48.62648 | -26.54781 | 34240 ft | 466 kts | 258° |
| 2026-04-30 14:58 | 48.60286 | -26.69083 | 34253 ft | 467 kts | 258° |
| 2026-04-30 15:00 | 48.56325 | -26.92804 | 34250 ft | 467 kts | 257° |
| 2026-04-30 15:01 | 48.53110 | -27.11819 | 34259 ft | 467 kts | 257° |
| 2026-04-30 15:01 | 48.50692 | -27.25986 | 34247 ft | 465 kts | 257° |
| 2026-04-30 15:02 | 48.49069 | -27.35429 | 34250 ft | 463 kts | 257° |
| 2026-04-30 15:03 | 48.45025 | -27.58745 | 34250 ft | 460 kts | 257° |
| 2026-04-30 15:04 | 48.41202 | -27.80507 | 34243 ft | 462 kts | 257° |
| 2026-04-30 15:06 | 48.37026 | -28.03979 | 34254 ft | 465 kts | 257° |
| 2026-04-30 15:07 | 48.33640 | -28.22784 | 34243 ft | 467 kts | 256° |
| 2026-04-30 15:08 | 48.30214 | -28.41623 | 34255 ft | 468 kts | 256° |
| 2026-04-30 15:09 | 48.25885 | -28.65147 | 34251 ft | 468 kts | 256° |
| 2026-04-30 15:10 | 48.22385 | -28.83951 | 34259 ft | 468 kts | 256° |
| 2026-04-30 15:11 | 48.17085 | -29.12070 | 34253 ft | 469 kts | 256° |
| 2026-04-30 15:13 | 48.12586 | -29.35619 | 34255 ft | 471 kts | 256° |
| 2026-04-30 15:14 | 48.06195 | -29.68575 | 34256 ft | 473 kts | 255° |
| 2026-04-30 15:17 | 47.99300 | -30.11263 | 34251 ft | 466 kts | 266° |
| 2026-04-30 15:19 | 47.97146 | -30.49737 | 34255 ft | 466 kts | 265° |
| 2026-04-30 17:39 | 42.69827 | -55.62691 | 36126 ft | 455 kts | 233° |
| 2026-04-30 17:42 | 42.51300 | -55.97438 | 36108 ft | 453 kts | 233° |
| 2026-04-30 17:43 | 42.42035 | -56.14663 | 36110 ft | 452 kts | 233° |
| 2026-04-30 17:44 | 42.30905 | -56.35227 | 36104 ft | 451 kts | 233° |
| 2026-04-30 17:47 | 42.14154 | -56.65914 | 36081 ft | 451 kts | 234° |
| 2026-04-30 17:48 | 42.01085 | -56.89639 | 36075 ft | 453 kts | 234° |
| 2026-04-30 17:50 | 41.85976 | -57.16840 | 36068 ft | 455 kts | 235° |
| 2026-04-30 17:52 | 41.74552 | -57.37245 | 36062 ft | 456 kts | 235° |
| 2026-04-30 17:54 | 41.57426 | -57.67579 | 36044 ft | 453 kts | 234° |
| 2026-04-30 17:56 | 41.42222 | -57.94259 | 36031 ft | 450 kts | 234° |
| 2026-04-30 17:58 | 41.30852 | -58.14061 | 36034 ft | 448 kts | 234° |
| 2026-04-30 18:00 | 41.15696 | -58.40257 | 36032 ft | 447 kts | 234° |
| 2026-04-30 18:01 | 41.06209 | -58.56542 | 36011 ft | 446 kts | 234° |
| 2026-04-30 18:02 | 40.94820 | -58.75979 | 36013 ft | 445 kts | 234° |
| 2026-04-30 18:04 | 40.83431 | -58.95293 | 36007 ft | 443 kts | 233° |
| 2026-04-30 18:06 | 40.68262 | -59.20832 | 36000 ft | 443 kts | 233° |
| 2026-04-30 18:08 | 40.54863 | -59.43216 | 36004 ft | 447 kts | 233° |
| 2026-04-30 18:10 | 40.39385 | -59.68872 | 35985 ft | 447 kts | 233° |
| 2026-04-30 18:11 | 40.25932 | -59.91000 | 35985 ft | 440 kts | 233° |
| 2026-04-30 18:13 | 40.16428 | -60.06541 | 35977 ft | 438 kts | 233° |
| 2026-04-30 18:14 | 40.06891 | -60.22057 | 35973 ft | 438 kts | 233° |
| 2026-04-30 18:15 | 39.95400 | -60.40649 | 35962 ft | 438 kts | 233° |
| 2026-04-30 18:16 | 39.87746 | -60.52973 | 35943 ft | 438 kts | 233° |
| 2026-04-30 18:17 | 39.83913 | -60.59125 | 35950 ft | 437 kts | 233° |
| 2026-04-30 18:18 | 39.78167 | -60.68327 | 35951 ft | 436 kts | 233° |
| 2026-04-30 18:18 | 39.74986 | -60.73410 | 35947 ft | 436 kts | 233° |
| 2026-04-30 18:19 | 39.71156 | -60.79517 | 35955 ft | 436 kts | 234° |
| 2026-04-30 18:19 | 39.67324 | -60.85617 | 35942 ft | 436 kts | 234° |
| 2026-04-30 18:20 | 39.63486 | -60.91715 | 35940 ft | 436 kts | 233° |
| 2026-04-30 18:20 | 39.59640 | -60.97813 | 35926 ft | 437 kts | 234° |
| 2026-04-30 18:21 | 39.55786 | -61.03913 | 35937 ft | 437 kts | 234° |
| 2026-04-30 18:21 | 39.51950 | -61.09970 | 35940 ft | 438 kts | 234° |
| 2026-04-30 18:22 | 39.48060 | -61.16104 | 35934 ft | 438 kts | 234° |
| 2026-04-30 18:22 | 39.42273 | -61.25204 | 35925 ft | 438 kts | 235° |
| 2026-04-30 18:23 | 39.38393 | -61.31290 | 35933 ft | 438 kts | 235° |
| 2026-04-30 18:23 | 39.34516 | -61.37362 | 35934 ft | 438 kts | 235° |
| 2026-04-30 18:24 | 39.28694 | -61.46454 | 35924 ft | 437 kts | 236° |
| 2026-04-30 18:25 | 39.24815 | -61.52498 | 35920 ft | 437 kts | 236° |
| 2026-04-30 18:25 | 39.18999 | -61.61541 | 35921 ft | 436 kts | 236° |
| 2026-04-30 18:26 | 39.13180 | -61.70561 | 35914 ft | 436 kts | 236° |
| 2026-04-30 18:27 | 39.07359 | -61.79560 | 35918 ft | 436 kts | 236° |
| 2026-04-30 18:28 | 39.01532 | -61.88541 | 35913 ft | 435 kts | 236° |
| 2026-04-30 18:28 | 38.95709 | -61.97490 | 35900 ft | 434 kts | 236° |
| 2026-04-30 18:29 | 38.87965 | -62.09354 | 35901 ft | 432 kts | 237° |
| 2026-04-30 18:30 | 38.80278 | -62.21089 | 35905 ft | 430 kts | 237° |
| 2026-04-30 18:31 | 38.74499 | -62.29882 | 35869 ft | 430 kts | 237° |
| 2026-04-30 18:32 | 38.68726 | -62.38642 | 35893 ft | 428 kts | 237° |
| 2026-04-30 18:33 | 38.62959 | -62.47371 | 35893 ft | 428 kts | 237° |
| 2026-04-30 18:33 | 38.57186 | -62.56084 | 35890 ft | 428 kts | 237° |
| 2026-04-30 18:34 | 38.51407 | -62.64782 | 35889 ft | 427 kts | 237° |
| 2026-04-30 18:35 | 38.47946 | -62.70847 | 35891 ft | 420 kts | 244° |
| 2026-04-30 18:35 | 38.44789 | -62.77124 | 35871 ft | 420 kts | 244° |
| 2026-04-30 18:36 | 38.40015 | -62.86533 | 35890 ft | 421 kts | 243° |
| 2026-04-30 18:37 | 38.35217 | -62.95932 | 35882 ft | 422 kts | 243° |
| 2026-04-30 18:37 | 38.32011 | -63.02198 | 35877 ft | 422 kts | 243° |
| 2026-04-30 18:38 | 38.28822 | -63.08418 | 35869 ft | 422 kts | 243° |
| 2026-04-30 18:38 | 38.25609 | -63.14674 | 35885 ft | 422 kts | 243° |
| 2026-04-30 18:39 | 38.22389 | -63.20932 | 35877 ft | 423 kts | 243° |
| 2026-04-30 18:39 | 38.19164 | -63.27185 | 35871 ft | 423 kts | 243° |
| 2026-04-30 18:40 | 38.15940 | -63.33426 | 35857 ft | 422 kts | 243° |
| 2026-04-30 18:40 | 38.12717 | -63.39653 | 35865 ft | 422 kts | 243° |
| 2026-04-30 18:41 | 38.09491 | -63.45875 | 35877 ft | 422 kts | 243° |
| 2026-04-30 18:41 | 38.06263 | -63.52088 | 35867 ft | 422 kts | 243° |
| 2026-04-30 18:42 | 38.03036 | -63.58288 | 35854 ft | 421 kts | 243° |
| 2026-04-30 18:42 | 37.98193 | -63.67568 | 35859 ft | 420 kts | 243° |
| 2026-04-30 18:45 | 37.80436 | -64.01381 | 35858 ft | 419 kts | 242° |
| 2026-04-30 18:46 | 37.77199 | -64.07508 | 35861 ft | 419 kts | 242° |
| 2026-04-30 18:46 | 37.73960 | -64.13626 | 35853 ft | 418 kts | 242° |
| 2026-04-30 18:47 | 37.70723 | -64.19729 | 35856 ft | 418 kts | 242° |
| 2026-04-30 18:47 | 37.67486 | -64.25822 | 35854 ft | 418 kts | 242° |
| 2026-04-30 18:48 | 37.64248 | -64.31906 | 35850 ft | 417 kts | 242° |
| 2026-04-30 18:48 | 37.61008 | -64.37981 | 35860 ft | 417 kts | 242° |
| 2026-04-30 18:49 | 37.57766 | -64.44048 | 35824 ft | 417 kts | 242° |
| 2026-04-30 18:49 | 37.54527 | -64.50100 | 35836 ft | 416 kts | 242° |
| 2026-04-30 18:50 | 37.51288 | -64.56140 | 35841 ft | 415 kts | 242° |
| 2026-04-30 18:50 | 37.48053 | -64.62164 | 35841 ft | 415 kts | 242° |
| 2026-04-30 18:51 | 37.44813 | -64.68184 | 35841 ft | 415 kts | 242° |
| 2026-04-30 18:51 | 37.41571 | -64.74199 | 35835 ft | 415 kts | 242° |
| 2026-04-30 18:52 | 37.38322 | -64.80214 | 35836 ft | 416 kts | 242° |
| 2026-04-30 18:52 | 37.35087 | -64.86193 | 35835 ft | 417 kts | 241° |
| 2026-04-30 18:53 | 37.31824 | -64.92214 | 35836 ft | 417 kts | 241° |
| 2026-04-30 18:53 | 37.28556 | -64.98232 | 35863 ft | 417 kts | 241° |
| 2026-04-30 18:54 | 37.25286 | -65.04243 | 35845 ft | 416 kts | 241° |
| 2026-04-30 18:54 | 37.22020 | -65.10233 | 35841 ft | 415 kts | 241° |
| 2026-04-30 18:55 | 37.18762 | -65.16201 | 35839 ft | 414 kts | 241° |
| 2026-04-30 18:55 | 37.13880 | -65.25124 | 35845 ft | 413 kts | 241° |
| 2026-04-30 18:56 | 37.09002 | -65.34016 | 35842 ft | 412 kts | 240° |
| 2026-04-30 18:57 | 37.04125 | -65.42883 | 35844 ft | 412 kts | 240° |
| 2026-04-30 18:57 | 37.00890 | -65.48750 | 35842 ft | 412 kts | 240° |
| 2026-04-30 18:58 | 36.95993 | -65.57614 | 35826 ft | 413 kts | 240° |
| 2026-04-30 18:59 | 36.91090 | -65.66466 | 35845 ft | 413 kts | 239° |
| 2026-04-30 19:00 | 36.84550 | -65.78238 | 35854 ft | 414 kts | 239° |
| 2026-04-30 19:01 | 36.77967 | -65.90042 | 35842 ft | 415 kts | 239° |
| 2026-04-30 19:02 | 36.73007 | -65.98912 | 35858 ft | 416 kts | 239° |
| 2026-04-30 19:03 | 36.66379 | -66.10725 | 35855 ft | 415 kts | 239° |
| 2026-04-30 19:04 | 36.59772 | -66.22461 | 35845 ft | 416 kts | 239° |
| 2026-04-30 19:05 | 36.53100 | -66.34273 | 35853 ft | 418 kts | 238° |
| 2026-04-30 19:06 | 36.46385 | -66.46118 | 35846 ft | 419 kts | 238° |
| 2026-04-30 19:06 | 36.41333 | -66.55003 | 35863 ft | 420 kts | 238° |
| 2026-04-30 19:07 | 36.36841 | -66.62884 | 35859 ft | 420 kts | 238° |
| 2026-04-30 19:08 | 36.30093 | -66.74688 | 35860 ft | 419 kts | 238° |
| 2026-04-30 19:09 | 36.25052 | -66.83479 | 35864 ft | 418 kts | 238° |
| 2026-04-30 19:09 | 36.21679 | -66.89350 | 35868 ft | 418 kts | 238° |
| 2026-04-30 19:10 | 36.14919 | -67.01085 | 35859 ft | 419 kts | 238° |
| 2026-04-30 19:11 | 36.09827 | -67.09898 | 35877 ft | 420 kts | 238° |
| 2026-04-30 19:12 | 36.06442 | -67.15743 | 35858 ft | 421 kts | 238° |
| 2026-04-30 19:12 | 36.03032 | -67.21623 | 35861 ft | 421 kts | 238° |
| 2026-04-30 19:13 | 35.96193 | -67.33385 | 35859 ft | 422 kts | 237° |
| 2026-04-30 19:14 | 35.92759 | -67.39274 | 35864 ft | 422 kts | 237° |
| 2026-04-30 19:14 | 35.89329 | -67.45148 | 35860 ft | 422 kts | 237° |
| 2026-04-30 19:15 | 35.85898 | -67.51013 | 35858 ft | 421 kts | 237° |
| 2026-04-30 19:15 | 35.80744 | -67.59804 | 35852 ft | 422 kts | 237° |
| 2026-04-30 19:16 | 35.77303 | -67.65662 | 35852 ft | 421 kts | 237° |
| 2026-04-30 19:17 | 35.72175 | -67.74372 | 35861 ft | 420 kts | 237° |
| 2026-04-30 19:17 | 35.67021 | -67.83106 | 35853 ft | 420 kts | 237° |
| 2026-04-30 19:18 | 35.61865 | -67.91820 | 35833 ft | 420 kts | 237° |
| 2026-04-30 19:19 | 35.58422 | -67.97626 | 35842 ft | 419 kts | 237° |
| 2026-04-30 19:19 | 35.53265 | -68.06307 | 35850 ft | 419 kts | 237° |
| 2026-04-30 19:20 | 35.49820 | -68.12094 | 35850 ft | 419 kts | 237° |
| 2026-04-30 19:21 | 35.44649 | -68.20760 | 35866 ft | 420 kts | 237° |
| 2026-04-30 19:22 | 35.37760 | -68.32273 | 35853 ft | 418 kts | 237° |
| 2026-04-30 19:23 | 35.27475 | -68.49392 | 35846 ft | 416 kts | 237° |
| 2026-04-30 19:24 | 35.22329 | -68.57927 | 35842 ft | 415 kts | 237° |
| 2026-04-30 19:25 | 35.13766 | -68.72082 | 35841 ft | 413 kts | 237° |
| 2026-04-30 19:26 | 35.06915 | -68.83365 | 35832 ft | 413 kts | 238° |
| 2026-04-30 19:27 | 35.01777 | -68.91806 | 35840 ft | 413 kts | 237° |
| 2026-04-30 19:28 | 34.96637 | -69.00227 | 35842 ft | 413 kts | 237° |
| 2026-04-30 19:29 | 34.89794 | -69.11409 | 35805 ft | 413 kts | 237° |
| 2026-04-30 19:30 | 34.82926 | -69.22596 | 35846 ft | 412 kts | 238° |
| 2026-04-30 19:31 | 34.76043 | -69.33773 | 35844 ft | 413 kts | 238° |
| 2026-04-30 19:31 | 34.70871 | -69.42148 | 35810 ft | 413 kts | 238° |
| 2026-04-30 19:32 | 34.67423 | -69.47717 | 35838 ft | 412 kts | 238° |
| 2026-04-30 19:32 | 34.63980 | -69.53273 | 35849 ft | 412 kts | 238° |
| 2026-04-30 19:33 | 34.60556 | -69.58790 | 35846 ft | 412 kts | 238° |
| 2026-04-30 19:33 | 34.57107 | -69.64339 | 35846 ft | 412 kts | 238° |
| 2026-04-30 19:34 | 34.53659 | -69.69875 | 35847 ft | 412 kts | 238° |
| 2026-04-30 19:35 | 34.48478 | -69.78179 | 35840 ft | 411 kts | 239° |
| 2026-04-30 19:35 | 34.45029 | -69.83698 | 35847 ft | 411 kts | 239° |
| 2026-04-30 19:36 | 34.41576 | -69.89213 | 35857 ft | 411 kts | 239° |
| 2026-04-30 19:36 | 34.36401 | -69.97463 | 35842 ft | 409 kts | 239° |
| 2026-04-30 19:37 | 34.32953 | -70.02949 | 35844 ft | 409 kts | 239° |
| 2026-04-30 19:37 | 34.29537 | -70.08376 | 35840 ft | 408 kts | 239° |
| 2026-04-30 19:38 | 34.26101 | -70.13829 | 35844 ft | 408 kts | 239° |
| 2026-04-30 19:38 | 34.22660 | -70.19279 | 35843 ft | 408 kts | 239° |
| 2026-04-30 19:39 | 34.19218 | -70.24723 | 35849 ft | 408 kts | 239° |
| 2026-04-30 19:39 | 34.15772 | -70.30165 | 35842 ft | 407 kts | 239° |
| 2026-04-30 19:40 | 34.12328 | -70.35594 | 35820 ft | 406 kts | 239° |
| 2026-04-30 19:40 | 34.08888 | -70.41011 | 35839 ft | 407 kts | 239° |
| 2026-04-30 19:41 | 34.05441 | -70.46433 | 35838 ft | 408 kts | 239° |
| 2026-04-30 19:41 | 34.01983 | -70.51861 | 35841 ft | 409 kts | 239° |
| 2026-04-30 19:42 | 33.98512 | -70.57302 | 35843 ft | 409 kts | 239° |
| 2026-04-30 19:42 | 33.95064 | -70.62696 | 35845 ft | 408 kts | 239° |
| 2026-04-30 19:43 | 33.91599 | -70.68110 | 35841 ft | 408 kts | 239° |
| 2026-04-30 19:44 | 33.86394 | -70.76231 | 35848 ft | 408 kts | 239° |
| 2026-04-30 19:44 | 33.82914 | -70.81648 | 35849 ft | 409 kts | 239° |
| 2026-04-30 19:45 | 33.79455 | -70.87026 | 35845 ft | 410 kts | 239° |
| 2026-04-30 19:45 | 33.75965 | -70.92445 | 35853 ft | 410 kts | 239° |
| 2026-04-30 19:46 | 33.72471 | -70.97862 | 35835 ft | 410 kts | 239° |
| 2026-04-30 19:46 | 33.68976 | -71.03271 | 35840 ft | 410 kts | 239° |
| 2026-04-30 19:47 | 33.65471 | -71.08685 | 35846 ft | 411 kts | 239° |
| 2026-04-30 19:47 | 33.61958 | -71.14102 | 35849 ft | 411 kts | 239° |
| 2026-04-30 19:48 | 33.58439 | -71.19522 | 35848 ft | 412 kts | 239° |
| 2026-04-30 19:48 | 33.54915 | -71.24943 | 35849 ft | 412 kts | 239° |
| 2026-04-30 19:49 | 33.51389 | -71.30360 | 35839 ft | 412 kts | 238° |
| 2026-04-30 19:49 | 33.46082 | -71.38497 | 35858 ft | 415 kts | 238° |
| 2026-04-30 19:50 | 33.44298 | -71.41232 | 35984 ft | 419 kts | 238° |
| 2026-04-30 19:50 | 33.42503 | -71.43979 | 36315 ft | 418 kts | 239° |
| 2026-04-30 19:50 | 33.40713 | -71.46712 | 36693 ft | 417 kts | 239° |
| 2026-04-30 19:50 | 33.38927 | -71.49436 | 37070 ft | 415 kts | 239° |
| 2026-04-30 19:51 | 33.37149 | -71.52148 | 37419 ft | 414 kts | 239° |
| 2026-04-30 19:51 | 33.35373 | -71.54857 | 37727 ft | 414 kts | 239° |
| 2026-04-30 19:51 | 33.31805 | -71.60297 | 37830 ft | 415 kts | 240° |
| 2026-04-30 19:52 | 33.28244 | -71.65713 | 37849 ft | 413 kts | 240° |
| 2026-04-30 19:52 | 33.24697 | -71.71100 | 37857 ft | 411 kts | 240° |
| 2026-04-30 19:53 | 33.21163 | -71.76462 | 37857 ft | 410 kts | 240° |
| 2026-04-30 19:53 | 33.17651 | -71.81782 | 37857 ft | 410 kts | 240° |
| 2026-04-30 19:54 | 33.14114 | -71.87133 | 37858 ft | 411 kts | 240° |
| 2026-04-30 19:54 | 33.10570 | -71.92487 | 37869 ft | 412 kts | 240° |
| 2026-04-30 19:55 | 33.07009 | -71.97861 | 37859 ft | 414 kts | 240° |
| 2026-04-30 19:55 | 33.03427 | -72.03257 | 37860 ft | 416 kts | 240° |
| 2026-04-30 19:56 | 33.00433 | -72.07755 | 37861 ft | 417 kts | 240° |
| 2026-04-30 19:56 | 32.96825 | -72.13166 | 37860 ft | 417 kts | 240° |
| 2026-04-30 19:57 | 32.93212 | -72.18578 | 37861 ft | 417 kts | 240° |
| 2026-04-30 19:57 | 32.89602 | -72.23977 | 37862 ft | 417 kts | 240° |
| 2026-04-30 19:58 | 32.85989 | -72.29374 | 37868 ft | 417 kts | 241° |
| 2026-04-30 19:58 | 32.82374 | -72.34768 | 37863 ft | 416 kts | 241° |
| 2026-04-30 19:59 | 32.78765 | -72.40145 | 37857 ft | 416 kts | 241° |
| 2026-04-30 20:00 | 32.73355 | -72.48190 | 37860 ft | 415 kts | 241° |
| 2026-04-30 20:00 | 32.69755 | -72.53535 | 37826 ft | 414 kts | 241° |
| 2026-04-30 20:01 | 32.64343 | -72.61558 | 37881 ft | 416 kts | 241° |
| 2026-04-30 20:01 | 32.60734 | -72.66897 | 37869 ft | 418 kts | 241° |
| 2026-04-30 20:02 | 32.55256 | -72.74984 | 37869 ft | 420 kts | 241° |
| 2026-04-30 20:03 | 32.49755 | -72.83087 | 37865 ft | 420 kts | 240° |
| 2026-04-30 20:03 | 32.46083 | -72.88487 | 37873 ft | 421 kts | 240° |
| 2026-04-30 20:04 | 32.42405 | -72.93889 | 37857 ft | 422 kts | 240° |
| 2026-04-30 20:05 | 32.36871 | -73.02002 | 37860 ft | 423 kts | 240° |
| 2026-04-30 20:05 | 32.31323 | -73.10118 | 37875 ft | 423 kts | 240° |
| 2026-04-30 20:06 | 32.27641 | -73.15491 | 37869 ft | 423 kts | 240° |
| 2026-04-30 20:06 | 32.23930 | -73.20897 | 37856 ft | 423 kts | 240° |
| 2026-04-30 20:07 | 32.20226 | -73.26287 | 37865 ft | 422 kts | 240° |
| 2026-04-30 20:08 | 32.14669 | -73.34362 | 37870 ft | 422 kts | 240° |
| 2026-04-30 20:08 | 32.10963 | -73.39737 | 37882 ft | 422 kts | 240° |
| 2026-04-30 20:09 | 32.07262 | -73.45097 | 37884 ft | 421 kts | 240° |
| 2026-04-30 20:09 | 32.01708 | -73.53129 | 37868 ft | 422 kts | 240° |
| 2026-04-30 20:10 | 31.96146 | -73.61155 | 37880 ft | 425 kts | 240° |
| 2026-04-30 20:11 | 31.90521 | -73.69254 | 37879 ft | 427 kts | 240° |
| 2026-04-30 20:11 | 31.86754 | -73.74667 | 37881 ft | 428 kts | 240° |
| 2026-04-30 20:12 | 31.81086 | -73.82800 | 37877 ft | 428 kts | 240° |
| 2026-04-30 20:13 | 31.77298 | -73.88223 | 37885 ft | 430 kts | 240° |
| 2026-04-30 20:13 | 31.73501 | -73.93651 | 37884 ft | 431 kts | 240° |
| 2026-04-30 20:14 | 31.69691 | -73.99088 | 37885 ft | 431 kts | 240° |
| 2026-04-30 20:14 | 31.65876 | -74.04528 | 37893 ft | 432 kts | 240° |
| 2026-04-30 20:15 | 31.62056 | -74.09966 | 37885 ft | 432 kts | 240° |
| 2026-04-30 20:15 | 31.58239 | -74.15393 | 37884 ft | 431 kts | 239° |
| 2026-04-30 20:16 | 31.54414 | -74.20826 | 37880 ft | 432 kts | 239° |
| 2026-04-30 20:16 | 31.50577 | -74.26266 | 37890 ft | 434 kts | 239° |
| 2026-04-30 20:17 | 31.46726 | -74.31718 | 37886 ft | 435 kts | 239° |
| 2026-04-30 20:17 | 31.42892 | -74.37138 | 37891 ft | 436 kts | 239° |
| 2026-04-30 20:18 | 31.39021 | -74.42604 | 37886 ft | 437 kts | 239° |
| 2026-04-30 20:18 | 31.35141 | -74.48075 | 37879 ft | 437 kts | 239° |
| 2026-04-30 20:19 | 31.31248 | -74.53555 | 37887 ft | 439 kts | 239° |
| 2026-04-30 20:19 | 31.27342 | -74.59048 | 37886 ft | 440 kts | 239° |
| 2026-04-30 20:20 | 31.23420 | -74.64553 | 37879 ft | 441 kts | 239° |
| 2026-04-30 20:20 | 31.19490 | -74.70060 | 37878 ft | 441 kts | 239° |
| 2026-04-30 20:21 | 31.15562 | -74.75557 | 37837 ft | 441 kts | 239° |
| 2026-04-30 20:21 | 31.11631 | -74.81052 | 37876 ft | 441 kts | 238° |
| 2026-04-30 20:22 | 31.07691 | -74.86553 | 37883 ft | 442 kts | 238° |
| 2026-04-30 20:22 | 31.03739 | -74.92062 | 37885 ft | 443 kts | 238° |
| 2026-04-30 20:23 | 30.99773 | -74.97581 | 37885 ft | 444 kts | 238° |
| 2026-04-30 20:23 | 30.95799 | -75.03105 | 37885 ft | 445 kts | 238° |
| 2026-04-30 20:24 | 30.91818 | -75.08628 | 37838 ft | 445 kts | 238° |
| 2026-04-30 20:24 | 30.87840 | -75.14141 | 37878 ft | 445 kts | 238° |
| 2026-04-30 20:25 | 30.81853 | -75.22426 | 37897 ft | 447 kts | 238° |
| 2026-04-30 20:26 | 30.75869 | -75.30687 | 37891 ft | 448 kts | 238° |
| 2026-04-30 20:26 | 30.69840 | -75.38992 | 37893 ft | 448 kts | 238° |
| 2026-04-30 20:27 | 30.61796 | -75.50044 | 37893 ft | 448 kts | 238° |
| 2026-04-30 20:28 | 30.53735 | -75.61090 | 37894 ft | 448 kts | 238° |
| 2026-04-30 20:30 | 30.43676 | -75.74831 | 37877 ft | 446 kts | 237° |
| 2026-04-30 20:31 | 30.31613 | -75.91245 | 37892 ft | 446 kts | 237° |
| 2026-04-30 20:32 | 30.21587 | -76.04836 | 37893 ft | 445 kts | 237° |
| 2026-04-30 20:33 | 30.15551 | -76.12997 | 37895 ft | 445 kts | 237° |
| 2026-04-30 20:34 | 30.09511 | -76.21146 | 37893 ft | 445 kts | 237° |
| 2026-04-30 20:35 | 30.03458 | -76.29296 | 37890 ft | 446 kts | 237° |
| 2026-04-30 20:35 | 29.97388 | -76.37451 | 37893 ft | 447 kts | 237° |
| 2026-04-30 20:36 | 29.93334 | -76.42889 | 37896 ft | 447 kts | 236° |
| 2026-04-30 20:37 | 29.87273 | -76.51004 | 37889 ft | 447 kts | 236° |
| 2026-04-30 20:37 | 29.83222 | -76.56419 | 37896 ft | 446 kts | 236° |
| 2026-04-30 20:38 | 29.79179 | -76.61816 | 37893 ft | 444 kts | 236° |
| 2026-04-30 20:38 | 29.75148 | -76.67190 | 37895 ft | 443 kts | 236° |
| 2026-04-30 20:39 | 29.69115 | -76.75222 | 37908 ft | 442 kts | 236° |
| 2026-04-30 20:40 | 29.63076 | -76.83247 | 37906 ft | 443 kts | 236° |
| 2026-04-30 20:40 | 29.59165 | -76.88703 | 37905 ft | 439 kts | 241° |
| 2026-04-30 20:41 | 29.54269 | -76.97482 | 37905 ft | 437 kts | 244° |
| 2026-04-30 20:41 | 29.51018 | -77.03392 | 37904 ft | 438 kts | 244° |
| 2026-04-30 20:42 | 29.47701 | -77.09272 | 37889 ft | 439 kts | 243° |
| 2026-04-30 20:43 | 29.42671 | -77.18084 | 37901 ft | 441 kts | 243° |
| 2026-04-30 20:43 | 29.39304 | -77.23970 | 37896 ft | 441 kts | 243° |
| 2026-04-30 20:44 | 29.34250 | -77.32794 | 37905 ft | 441 kts | 243° |
| 2026-04-30 20:45 | 29.28083 | -77.43539 | 37907 ft | 440 kts | 243° |
| 2026-04-30 20:45 | 29.24717 | -77.49391 | 37909 ft | 440 kts | 243° |
| 2026-04-30 20:46 | 29.17978 | -77.61088 | 37911 ft | 440 kts | 243° |
| 2026-04-30 20:47 | 29.12909 | -77.69862 | 37914 ft | 441 kts | 243° |
| 2026-04-30 20:48 | 29.07840 | -77.78602 | 37912 ft | 442 kts | 243° |
| 2026-04-30 20:48 | 29.04440 | -77.84454 | 37911 ft | 442 kts | 243° |
| 2026-04-30 20:49 | 29.01038 | -77.90303 | 37916 ft | 442 kts | 243° |
| 2026-04-30 20:50 | 28.95930 | -77.99073 | 37911 ft | 442 kts | 243° |
| 2026-04-30 20:50 | 28.92516 | -78.04925 | 37918 ft | 443 kts | 242° |
| 2026-04-30 20:51 | 28.89089 | -78.10790 | 37913 ft | 444 kts | 242° |
| 2026-04-30 20:51 | 28.83934 | -78.19596 | 37916 ft | 445 kts | 242° |
| 2026-04-30 20:52 | 28.80490 | -78.25469 | 37918 ft | 446 kts | 242° |
| 2026-04-30 20:53 | 28.75317 | -78.34274 | 37921 ft | 445 kts | 242° |
| 2026-04-30 20:53 | 28.71867 | -78.40137 | 37913 ft | 446 kts | 242° |
| 2026-04-30 20:54 | 28.66703 | -78.48899 | 37921 ft | 447 kts | 242° |
| 2026-04-30 20:55 | 28.61495 | -78.57715 | 37918 ft | 448 kts | 242° |
| 2026-04-30 20:55 | 28.58015 | -78.63597 | 37925 ft | 448 kts | 242° |
| 2026-04-30 20:56 | 28.52785 | -78.72420 | 37918 ft | 448 kts | 242° |
| 2026-04-30 20:57 | 28.47548 | -78.81237 | 37906 ft | 448 kts | 242° |
| 2026-04-30 20:57 | 28.44050 | -78.87117 | 37922 ft | 449 kts | 242° |
| 2026-04-30 20:58 | 28.38794 | -78.95938 | 37924 ft | 450 kts | 242° |
| 2026-04-30 20:58 | 28.35138 | -79.01718 | 37907 ft | 456 kts | 231° |
| 2026-04-30 20:59 | 28.29656 | -79.05475 | 37926 ft | 479 kts | 204° |
| 2026-04-30 20:59 | 28.26467 | -79.06608 | 37929 ft | 481 kts | 203° |
| 2026-04-30 21:00 | 28.13648 | -79.11191 | 37930 ft | 485 kts | 204° |
| 2026-04-30 21:01 | 28.04000 | -79.14776 | 37927 ft | 488 kts | 204° |
| 2026-04-30 21:02 | 27.94312 | -79.18379 | 37921 ft | 488 kts | 204° |
| 2026-04-30 21:02 | 27.87857 | -79.20772 | 37931 ft | 488 kts | 204° |
| 2026-04-30 21:03 | 27.81423 | -79.23153 | 37568 ft | 485 kts | 204° |
| 2026-04-30 21:03 | 27.78226 | -79.24335 | 37123 ft | 481 kts | 204° |
| 2026-04-30 21:03 | 27.75065 | -79.25501 | 36702 ft | 475 kts | 204° |
| 2026-04-30 21:03 | 27.71940 | -79.26653 | 36276 ft | 469 kts | 204° |
| 2026-04-30 21:04 | 27.68855 | -79.27792 | 35848 ft | 464 kts | 204° |
| 2026-04-30 21:04 | 27.65795 | -79.28921 | 35427 ft | 460 kts | 204° |
| 2026-04-30 21:04 | 27.59807 | -79.31131 | 34556 ft | 452 kts | 204° |
| 2026-04-30 21:05 | 27.56832 | -79.32228 | 34123 ft | 448 kts | 204° |
| 2026-04-30 21:05 | 27.53879 | -79.33316 | 33658 ft | 445 kts | 204° |
| 2026-04-30 21:05 | 27.50951 | -79.34395 | 33184 ft | 441 kts | 204° |
| 2026-04-30 21:05 | 27.48047 | -79.35463 | 32727 ft | 437 kts | 204° |
| 2026-04-30 21:06 | 27.45166 | -79.36522 | 32290 ft | 433 kts | 204° |
| 2026-04-30 21:06 | 27.42313 | -79.37571 | 31858 ft | 429 kts | 204° |
| 2026-04-30 21:06 | 27.39480 | -79.38612 | 31431 ft | 426 kts | 204° |
| 2026-04-30 21:06 | 27.36676 | -79.39643 | 31002 ft | 422 kts | 204° |
| 2026-04-30 21:07 | 27.33893 | -79.40665 | 30578 ft | 419 kts | 204° |
| 2026-04-30 21:07 | 27.31126 | -79.41679 | 30162 ft | 416 kts | 204° |
| 2026-04-30 21:07 | 27.28382 | -79.42684 | 29672 ft | 414 kts | 204° |
| 2026-04-30 21:07 | 27.25659 | -79.43680 | 29203 ft | 410 kts | 203° |
| 2026-04-30 21:08 | 27.22958 | -79.44668 | 28756 ft | 406 kts | 203° |
| 2026-04-30 21:08 | 27.20282 | -79.45646 | 28324 ft | 402 kts | 203° |
| 2026-04-30 21:08 | 27.17635 | -79.46614 | 27891 ft | 399 kts | 203° |
| 2026-04-30 21:08 | 27.15009 | -79.47574 | 27472 ft | 395 kts | 203° |
| 2026-04-30 21:09 | 27.12406 | -79.48526 | 27057 ft | 392 kts | 203° |
| 2026-04-30 21:09 | 27.09823 | -79.49470 | 26655 ft | 389 kts | 203° |
| 2026-04-30 21:09 | 27.07262 | -79.50405 | 26223 ft | 386 kts | 203° |
| 2026-04-30 21:09 | 27.04714 | -79.51335 | 25825 ft | 384 kts | 202° |
| 2026-04-30 21:10 | 27.02184 | -79.52257 | 25422 ft | 381 kts | 202° |
| 2026-04-30 21:10 | 26.99668 | -79.53173 | 25029 ft | 379 kts | 202° |
| 2026-04-30 21:10 | 26.97163 | -79.54086 | 24617 ft | 378 kts | 202° |
| 2026-04-30 21:10 | 26.94665 | -79.54997 | 24218 ft | 377 kts | 202° |
| 2026-04-30 21:11 | 26.92177 | -79.55902 | 23809 ft | 376 kts | 202° |
| 2026-04-30 21:11 | 26.89695 | -79.56805 | 23391 ft | 375 kts | 202° |
| 2026-04-30 21:11 | 26.87218 | -79.57703 | 22935 ft | 373 kts | 202° |
| 2026-04-30 21:11 | 26.84755 | -79.58591 | 22513 ft | 371 kts | 202° |
| 2026-04-30 21:12 | 26.82306 | -79.59473 | 22115 ft | 368 kts | 202° |
| 2026-04-30 21:12 | 26.79905 | -79.60337 | 21717 ft | 366 kts | 202° |
| 2026-04-30 21:12 | 26.77490 | -79.61207 | 21311 ft | 363 kts | 202° |
| 2026-04-30 21:12 | 26.75094 | -79.62071 | 20923 ft | 361 kts | 202° |
| 2026-04-30 21:13 | 26.72711 | -79.62929 | 20536 ft | 359 kts | 202° |
| 2026-04-30 21:13 | 26.70341 | -79.63783 | 20147 ft | 357 kts | 202° |
| 2026-04-30 21:13 | 26.67981 | -79.64633 | 19759 ft | 355 kts | 202° |
| 2026-04-30 21:13 | 26.65633 | -79.65478 | 19367 ft | 354 kts | 202° |
| 2026-04-30 21:14 | 26.63292 | -79.66319 | 18967 ft | 353 kts | 202° |
| 2026-04-30 21:14 | 26.60958 | -79.67151 | 18572 ft | 352 kts | 202° |
| 2026-04-30 21:14 | 26.58621 | -79.67970 | 18167 ft | 352 kts | 202° |
| 2026-04-30 21:14 | 26.56292 | -79.68782 | 17722 ft | 350 kts | 202° |
| 2026-04-30 21:15 | 26.53972 | -79.69592 | 17307 ft | 348 kts | 202° |
| 2026-04-30 21:15 | 26.51668 | -79.70397 | 16915 ft | 346 kts | 202° |
| 2026-04-30 21:15 | 26.49385 | -79.71196 | 16565 ft | 342 kts | 202° |
| 2026-04-30 21:15 | 26.47131 | -79.71991 | 16187 ft | 335 kts | 204° |
| 2026-04-30 21:16 | 26.45144 | -79.73209 | 15893 ft | 319 kts | 226° |
| 2026-04-30 21:16 | 26.43664 | -79.74969 | 15709 ft | 309 kts | 232° |
| 2026-04-30 21:16 | 26.42223 | -79.76773 | 15520 ft | 314 kts | 232° |
| 2026-04-30 21:16 | 26.40744 | -79.78589 | 15311 ft | 318 kts | 231° |
| 2026-04-30 21:17 | 26.39248 | -79.80413 | 15093 ft | 319 kts | 231° |
| 2026-04-30 21:17 | 26.37794 | -79.82271 | 14880 ft | 317 kts | 236° |
| 2026-04-30 21:17 | 26.36537 | -79.84276 | 14677 ft | 315 kts | 239° |
| 2026-04-30 21:17 | 26.35324 | -79.86310 | 14468 ft | 315 kts | 239° |
| 2026-04-30 21:18 | 26.34094 | -79.88329 | 14261 ft | 314 kts | 239° |
| 2026-04-30 21:18 | 26.32858 | -79.90321 | 14047 ft | 310 kts | 238° |
| 2026-04-30 21:18 | 26.31638 | -79.92276 | 13842 ft | 304 kts | 238° |
| 2026-04-30 21:18 | 26.30441 | -79.94188 | 13631 ft | 298 kts | 238° |
| 2026-04-30 21:19 | 26.29259 | -79.96076 | 13401 ft | 296 kts | 238° |
| 2026-04-30 21:19 | 26.28096 | -79.97930 | 13218 ft | 296 kts | 238° |
| 2026-04-30 21:19 | 26.26921 | -79.99805 | 13014 ft | 295 kts | 238° |
| 2026-04-30 21:19 | 26.25606 | -80.01536 | 12809 ft | 295 kts | 221° |
| 2026-04-30 21:20 | 26.23765 | -80.02598 | 12619 ft | 305 kts | 200° |
| 2026-04-30 21:20 | 26.21667 | -80.03117 | 12436 ft | 312 kts | 195° |
| 2026-04-30 21:20 | 26.19532 | -80.03580 | 12223 ft | 312 kts | 194° |
| 2026-04-30 21:20 | 26.17404 | -80.04040 | 12018 ft | 311 kts | 194° |
| 2026-04-30 21:21 | 26.15288 | -80.04505 | 11813 ft | 310 kts | 195° |
| 2026-04-30 21:21 | 26.13178 | -80.04977 | 11594 ft | 308 kts | 195° |
| 2026-04-30 21:21 | 26.08998 | -80.05927 | 11191 ft | 305 kts | 195° |
| 2026-04-30 21:22 | 26.06924 | -80.06401 | 10983 ft | 304 kts | 195° |
| 2026-04-30 21:22 | 26.00740 | -80.08003 | 10228 ft | 304 kts | 197° |
| 2026-04-30 21:23 | 25.98695 | -80.08538 | 9971 ft | 300 kts | 197° |
| 2026-04-30 21:23 | 25.96678 | -80.09063 | 9720 ft | 296 kts | 196° |
| 2026-04-30 21:23 | 25.92767 | -80.10160 | 9176 ft | 280 kts | 208° |
| 2026-04-30 21:24 | 25.91253 | -80.11405 | 8949 ft | 266 kts | 231° |
| 2026-04-30 21:24 | 25.90020 | -80.12960 | 8767 ft | 270 kts | 231° |
| 2026-04-30 21:24 | 25.88763 | -80.14535 | 8522 ft | 271 kts | 235° |
| 2026-04-30 21:24 | 25.87964 | -80.16379 | 8294 ft | 265 kts | 261° |
| 2026-04-30 21:25 | 25.87806 | -80.20437 | 7782 ft | 266 kts | 269° |
| 2026-04-30 21:25 | 25.87748 | -80.22491 | 7458 ft | 266 kts | 269° |
| 2026-04-30 21:25 | 25.87684 | -80.24545 | 7131 ft | 266 kts | 269° |
| 2026-04-30 21:26 | 25.87612 | -80.28632 | 6460 ft | 261 kts | 278° |
| 2026-04-30 21:26 | 25.88229 | -80.30499 | 6122 ft | 256 kts | 298° |
| 2026-04-30 21:27 | 25.89946 | -80.33947 | 5465 ft | 255 kts | 297° |
| 2026-04-30 21:27 | 25.90788 | -80.35680 | 5139 ft | 255 kts | 297° |
| 2026-04-30 21:27 | 25.91630 | -80.37409 | 4834 ft | 256 kts | 297° |
| 2026-04-30 21:28 | 25.93322 | -80.40894 | 4159 ft | 254 kts | 295° |
| 2026-04-30 21:28 | 25.93767 | -80.42708 | 4037 ft | 238 kts | 270° |
| 2026-04-30 21:28 | 25.93592 | -80.46423 | 4017 ft | 246 kts | 262° |
| 2026-04-30 21:29 | 25.93032 | -80.48198 | 3817 ft | 246 kts | 235° |
| 2026-04-30 21:29 | 25.88752 | -80.50624 | 3573 ft | 237 kts | 170° |
| 2026-04-30 21:30 | 25.86471 | -80.48273 | 3335 ft | 237 kts | 105° |
| 2026-04-30 21:31 | 25.86085 | -80.43077 | 2480 ft | 218 kts | 111° |
| 2026-04-30 21:31 | 25.84936 | -80.40073 | 1976 ft | 202 kts | 121° |
| 2026-04-30 21:32 | 25.83676 | -80.37580 | 1425 ft | 168 kts | 122° |
| 2026-04-30 21:32 | 25.83135 | -80.36517 | 1248 ft | 147 kts | 123° |
| 2026-04-30 21:32 | 25.82650 | -80.35569 | 1064 ft | 139 kts | 124° |
| 2026-04-30 21:32 | 25.82171 | -80.34631 | 896 ft | 140 kts | 122° |
| 2026-04-30 21:33 | 25.81693 | -80.33690 | 732 ft | 138 kts | 122° |
| 2026-04-30 21:33 | 25.80798 | -80.31927 | 410 ft | 129 kts | 120° |
| 2026-04-30 21:33 | 25.80346 | -80.31043 | 218 ft | 133 kts | 120° |
| 2026-04-30 21:34 | 25.80035 | -80.30442 | 95 ft | 135 kts | 119° |
| 2026-04-30 21:34 | 25.79233 | -80.28871 | 18 ft | 76 kts | 119° |
| 2026-04-30 21:34 | 25.79059 | -80.28529 | 19 ft | 30 kts | 119° |
| 2026-04-30 21:35 | 25.78980 | -80.28346 | 23 ft | 20 kts | 104° |
| 2026-04-30 21:35 | 25.78974 | -80.28199 | 24 ft | 19 kts | 88° |
| 2026-04-30 21:35 | 25.78983 | -80.28098 | 21 ft | 10 kts | 82° |
| 2026-04-30 21:35 | 25.78979 | -80.28020 | 24 ft | 10 kts | 110° |
| 2026-04-30 21:36 | 25.78948 | -80.27948 | 22 ft | 10 kts | 118° |
| 2026-04-30 21:36 | 25.78924 | -80.27901 | 21 ft | 5 kts | 120° |
| 2026-04-30 21:37 | 25.78900 | -80.27854 | 24 ft | 2 kts | 120° |
| 2026-04-30 21:37 | 25.78892 | -80.27838 | 20 ft | 3 kts | 120° |
| 2026-04-30 21:37 | 25.78883 | -80.27814 | 20 ft | 4 kts | 105° |
| 2026-04-30 21:37 | 25.78878 | -80.27772 | 20 ft | 8 kts | 93° |
| 2026-04-30 21:38 | 25.78880 | -80.27699 | 20 ft | 10 kts | 85° |
| 2026-04-30 21:38 | 25.78890 | -80.27623 | 20 ft | 10 kts | 80° |
| 2026-04-30 21:38 | 25.78904 | -80.27548 | 20 ft | 10 kts | 78° |
| 2026-04-30 21:38 | 25.78917 | -80.27470 | 21 ft | 10 kts | 81° |
| 2026-04-30 21:39 | 25.78923 | -80.27395 | 20 ft | 9 kts | 86° |
| 2026-04-30 21:39 | 25.78952 | -80.27347 | 21 ft | 7 kts | 13° |
| 2026-04-30 21:39 | 25.78988 | -80.27344 | 21 ft | 3 kts | 2° |
| 2026-04-30 21:39 | 25.79002 | -80.27344 | 20 ft | 1 kts | 2° |
| 2026-04-30 21:40 | 25.79006 | -80.27344 | 20 ft | 0 kts | 2° |